Time;durP1;ratioP1;P1;durP2;ratioP2;P2;SDS_P1;SDS_P2;PMS_P1;PMS_P2;Temp;Humidity;BMP_temperature;BMP_pressure;BME280_temperature;BME280_humidity;BME280_pressure;Samples;Min_cycle;Max_cycle;Signal;HPM_P1;HPM_P2
2022/06/28 00:00:10;;;;;;;7.38;1.08;;;17.90;99.90;;;;;;6233337;28;20046;-79
2022/06/28 00:03:12;;;;;;;2.22;1.02;;;17.90;99.90;;;;;;6233213;28;20041;-81
2022/06/28 00:06:15;;;;;;;2.78;0.90;;;17.80;99.90;;;;;;6232415;28;20042;-81
2022/06/28 00:09:17;;;;;;;1.02;0.88;;;17.70;99.90;;;;;;6232778;28;20525;-80
2022/06/28 00:12:19;;;;;;;4.00;1.20;;;17.60;99.90;;;;;;6234140;28;20042;-81
2022/06/28 00:18:41;;;;;;;4.57;1.40;;;17.40;99.90;;;;;;6232436;28;20042;-81
2022/06/28 00:21:44;;;;;;;3.25;1.70;;;17.40;99.90;;;;;;6231110;28;20065;-80
2022/06/28 00:24:46;;;;;;;2.28;1.00;;;17.40;99.90;;;;;;6216698;28;20042;-81
2022/06/28 00:27:48;;;;;;;2.20;1.10;;;17.30;99.90;;;;;;6229712;28;20052;-80
2022/06/28 00:30:50;;;;;;;2.33;1.70;;;17.30;99.90;;;;;;6213994;28;20053;-80
2022/06/28 00:33:51;;;;;;;7.50;3.13;;;17.40;99.90;;;;;;6212173;28;20046;-81
2022/06/28 00:36:54;;;;;;;2.92;1.15;;;17.40;99.90;;;;;;6211820;28;20064;-81
2022/06/28 00:39:56;;;;;;;3.17;1.27;;;17.30;99.90;;;;;;6209455;28;20053;-81
2022/06/28 00:42:58;;;;;;;4.35;1.27;;;17.30;99.90;;;;;;6210496;28;20062;-80
2022/06/28 00:46:00;;;;;;;3.55;1.23;;;17.30;99.90;;;;;;6210692;28;20053;-81
2022/06/28 00:49:02;;;;;;;4.72;1.25;;;17.20;99.90;;;;;;6224225;28;20053;-81
2022/06/28 00:52:05;;;;;;;3.63;1.45;;;17.20;99.90;;;;;;6239041;28;20057;-80
2022/06/28 00:55:07;;;;;;;2.15;1.55;;;17.10;99.90;;;;;;6228116;28;20415;-78
2022/06/28 00:58:10;;;;;;;2.08;1.30;;;17.10;99.90;;;;;;6227964;28;20046;-80
2022/06/28 01:01:11;;;;;;;2.88;1.67;;;17.10;99.90;;;;;;6228323;28;20053;-80
2022/06/28 01:04:13;;;;;;;7.63;1.35;;;17.10;99.90;;;;;;6229150;28;20042;-81
2022/06/28 01:07:16;;;;;;;8.40;1.52;;;17.00;99.90;;;;;;6228081;28;20064;-79
2022/06/28 01:10:18;;;;;;;4.97;1.60;;;16.90;99.90;;;;;;6229046;28;20041;-79
2022/06/28 01:13:20;;;;;;;3.28;1.02;;;16.80;99.90;;;;;;6229469;28;20506;-79
2022/06/28 01:16:23;;;;;;;7.72;1.38;;;16.80;99.90;;;;;;6226701;28;20052;-80
2022/06/28 01:19:25;;;;;;;3.20;1.13;;;16.70;99.90;;;;;;6226395;28;20046;-80
2022/06/28 01:22:30;;;;;;;2.78;1.63;;;16.70;99.90;;;;;;6225383;28;20046;-79
2022/06/28 01:25:33;;;;;;;3.67;1.27;;;16.60;99.90;;;;;;6229658;28;20053;-79
2022/06/28 01:28:35;;;;;;;5.63;1.42;;;16.60;99.90;;;;;;6233261;28;20050;-79
2022/06/28 01:31:38;;;;;;;4.03;1.63;;;16.50;99.90;;;;;;6234972;28;20042;-81
2022/06/28 01:34:39;;;;;;;2.35;1.35;;;16.40;99.90;;;;;;6234530;28;20073;-78
2022/06/28 01:37:41;;;;;;;4.80;2.30;;;16.40;99.90;;;;;;6234334;28;20050;-78
2022/06/28 01:40:46;;;;;;;2.95;1.35;;;16.30;99.90;;;;;;6235096;28;20052;-79
2022/06/28 01:43:47;;;;;;;3.97;1.30;;;16.30;99.90;;;;;;6234949;28;20053;-78
2022/06/28 01:46:49;;;;;;;4.07;1.30;;;16.30;99.90;;;;;;6234656;28;20046;-79
2022/06/28 01:49:51;;;;;;;2.10;1.40;;;16.30;99.90;;;;;;6234633;28;20046;-79
2022/06/28 01:52:53;;;;;;;2.05;1.27;;;16.20;99.90;;;;;;6236126;28;20050;-80
2022/06/28 01:55:56;;;;;;;2.60;1.30;;;16.10;99.90;;;;;;6236468;28;20062;-79
2022/06/28 01:58:57;;;;;;;2.22;1.02;;;16.10;99.90;;;;;;6235006;28;20056;-79
2022/06/28 02:01:59;;;;;;;1.83;1.35;;;16.00;99.90;;;;;;6235269;28;20054;-79
2022/06/28 02:05:02;;;;;;;2.67;1.40;;;15.90;99.90;;;;;;6235919;28;20114;-80
2022/06/28 02:08:04;;;;;;;4.97;1.35;;;15.90;99.90;;;;;;6234699;28;20104;-78
2022/06/28 02:11:07;;;;;;;2.47;1.48;;;15.80;99.90;;;;;;6236101;28;20128;-79
2022/06/28 02:14:09;;;;;;;11.52;4.63;;;15.80;99.90;;;;;;6239667;28;20134;-78
2022/06/28 02:17:11;;;;;;;9.38;1.17;;;15.80;99.90;;;;;;6239579;28;20419;-79
2022/06/28 02:20:14;;;;;;;3.45;1.13;;;15.70;99.90;;;;;;6239758;28;20499;-79
2022/06/28 02:23:15;;;;;;;1.90;0.98;;;15.70;99.90;;;;;;6239130;28;20057;-79
2022/06/28 02:26:18;;;;;;;5.07;1.48;;;15.70;99.90;;;;;;6240116;28;20042;-79
2022/06/28 02:29:20;;;;;;;3.60;1.15;;;15.60;99.90;;;;;;6240478;28;20049;-78
2022/06/28 02:32:22;;;;;;;4.15;1.40;;;15.60;99.90;;;;;;6240168;28;20517;-78
2022/06/28 02:42:05;;;;;;;6.70;1.58;;;15.50;99.90;;;;;;6240927;28;20042;-79
2022/06/28 02:45:08;;;;;;;3.65;1.38;;;15.40;99.90;;;;;;6241554;28;20049;-79
2022/06/28 02:48:10;;;;;;;4.63;1.13;;;15.30;99.90;;;;;;6239251;28;20046;-80
2022/06/28 02:51:12;;;;;;;8.43;1.58;;;15.30;99.90;;;;;;6240797;28;20108;-79
2022/06/28 02:54:14;;;;;;;2.95;1.35;;;15.30;99.90;;;;;;6241361;28;20058;-78
2022/06/28 02:57:17;;;;;;;2.33;1.42;;;15.20;99.90;;;;;;6240297;28;20064;-79
2022/06/28 03:00:21;;;;;;;3.78;1.35;;;15.20;99.90;;;;;;6240549;28;20388;-80
2022/06/28 03:03:23;;;;;;;9.23;3.28;;;15.20;99.90;;;;;;6242578;28;20057;-79
2022/06/28 03:06:25;;;;;;;4.03;1.23;;;15.10;99.90;;;;;;6241773;28;20060;-79
2022/06/28 03:09:26;;;;;;;8.65;1.73;;;15.10;99.90;;;;;;6242299;28;20054;-79
2022/06/28 03:12:29;;;;;;;4.95;1.27;;;15.10;99.90;;;;;;6242060;28;20531;-78
2022/06/28 03:15:31;;;;;;;4.75;1.42;;;15.00;99.90;;;;;;6241932;28;20046;-79
2022/06/28 03:18:33;;;;;;;3.72;1.30;;;15.00;99.90;;;;;;6242038;28;20487;-78
2022/06/28 03:21:35;;;;;;;7.60;1.40;;;15.00;99.90;;;;;;6242105;28;20045;-78
2022/06/28 03:24:37;;;;;;;7.22;1.48;;;14.90;99.90;;;;;;6241285;28;20054;-78
2022/06/28 03:27:40;;;;;;;3.63;1.25;;;14.90;99.90;;;;;;6241128;28;20057;-78
2022/06/28 03:30:41;;;;;;;11.82;1.60;;;14.90;99.90;;;;;;6242391;28;20058;-79
2022/06/28 03:33:43;;;;;;;5.07;1.83;;;14.90;99.90;;;;;;6240877;28;20053;-81
2022/06/28 03:36:45;;;;;;;3.88;1.25;;;14.90;99.90;;;;;;6238672;28;20521;-80
2022/06/28 03:39:47;;;;;;;5.07;1.05;;;14.90;99.90;;;;;;6239305;28;20073;-80
2022/06/28 03:42:50;;;;;;;2.33;1.67;;;15.00;99.90;;;;;;6240377;28;20057;-79
2022/06/28 03:45:51;;;;;;;2.33;1.08;;;15.00;99.90;;;;;;6237913;28;20050;-80
2022/06/28 03:48:53;;;;;;;2.60;1.20;;;14.90;99.90;;;;;;6238405;28;20054;-79
2022/06/28 03:51:55;;;;;;;2.95;1.20;;;14.90;99.90;;;;;;6239422;28;20420;-79
2022/06/28 03:54:57;;;;;;;9.23;1.55;;;14.90;99.90;;;;;;6240220;28;20105;-79
2022/06/28 03:58:00;;;;;;;4.65;2.10;;;15.00;99.90;;;;;;6238735;28;20046;-79
2022/06/28 04:01:02;;;;;;;11.55;1.23;;;15.00;99.90;;;;;;6238443;28;20046;-79
2022/06/28 04:04:03;;;;;;;4.88;1.30;;;15.00;99.90;;;;;;6239426;28;20042;-79
2022/06/28 04:07:05;;;;;;;2.08;1.23;;;15.00;99.90;;;;;;6239273;28;20045;-79
2022/06/28 04:10:08;;;;;;;2.20;1.20;;;15.10;99.90;;;;;;6238684;28;20048;-80
2022/06/28 04:13:12;;;;;;;3.00;0.90;;;15.50;99.90;;;;;;6239344;28;20056;-79
2022/06/28 04:16:13;;;;;;;2.90;0.77;;;16.70;99.90;;;;;;6239227;28;20054;-79
2022/06/28 04:19:15;;;;;;;4.10;0.90;;;18.40;99.90;;;;;;6223538;28;20427;-79
2022/06/28 04:22:17;;;;;;;3.50;1.05;;;20.00;99.90;;;;;;6239523;28;20442;-79
2022/06/28 04:25:19;;;;;;;5.35;0.80;;;20.90;98.10;;;;;;6231937;28;20145;-79
2022/06/28 04:28:22;;;;;;;5.10;1.10;;;20.90;97.30;;;;;;6232598;28;20060;-81
2022/06/28 04:31:23;;;;;;;3.33;0.70;;;20.50;97.90;;;;;;6239490;28;20042;-80
2022/06/28 04:34:25;;;;;;;1.73;0.80;;;20.40;97.90;;;;;;6230194;28;20058;-78
2022/06/28 04:37:27;;;;;;;2.42;1.00;;;20.20;97.90;;;;;;6235332;28;20058;-80
2022/06/28 04:40:29;;;;;;;1.50;0.70;;;20.80;97.80;;;;;;6242460;28;20046;-80
2022/06/28 04:43:32;;;;;;;5.70;1.90;;;22.50;95.50;;;;;;6243309;28;20045;-80
2022/06/28 04:46:34;;;;;;;3.28;0.70;;;24.30;92.80;;;;;;6241188;28;20161;-79
2022/06/28 04:49:35;;;;;;;4.53;0.70;;;25.90;90.20;;;;;;6222368;28;20060;-82
2022/06/28 04:52:37;;;;;;;3.28;0.70;;;27.20;85.70;;;;;;6229634;28;20426;-82
2022/06/28 04:55:39;;;;;;;2.05;0.25;;;28.30;79.50;;;;;;6229760;28;20053;-82
2022/06/28 04:58:42;;;;;;;3.10;0.70;;;29.40;74.00;;;;;;6238581;28;20129;-82
2022/06/28 05:01:44;;;;;;;1.10;0.65;;;30.40;68.70;;;;;;6224963;28;20041;-82
2022/06/28 05:04:46;;;;;;;3.35;1.17;;;31.30;64.20;;;;;;6225807;28;20414;-82
2022/06/28 05:07:48;;;;;;;2.22;0.20;;;32.00;60.60;;;;;;6225152;28;20127;-83
2022/06/28 05:10:50;;;;;;;0.93;0.40;;;32.60;58.10;;;;;;6226577;28;20048;-83
2022/06/28 05:13:53;;;;;;;2.67;0.30;;;33.30;55.60;;;;;;6224834;28;20416;-82
2022/06/28 05:16:55;;;;;;;4.13;1.30;;;33.90;53.40;;;;;;6225016;28;20050;-83
2022/06/28 05:19:57;;;;;;;4.20;0.93;;;34.70;51.50;;;;;;6223857;28;20522;-83
2022/06/28 05:22:58;;;;;;;1.65;0.77;;;35.90;48.90;;;;;;6224290;28;20057;-83
2022/06/28 05:26:00;;;;;;;3.42;0.77;;;37.40;45.80;;;;;;6224184;28;20057;-83
2022/06/28 05:29:03;;;;;;;3.30;0.70;;;38.50;43.40;;;;;;6224214;28;20530;-81
2022/06/28 05:32:06;;;;;;;1.45;0.75;;;38.90;41.80;;;;;;6224380;28;20053;-84
2022/06/28 05:35:08;;;;;;;2.72;1.10;;;38.70;41.50;;;;;;6225343;28;20048;-83
2022/06/28 05:38:10;;;;;;;1.70;1.00;;;38.00;41.30;;;;;;6197126;28;20068;-83
2022/06/28 05:41:12;;;;;;;0.93;0.57;;;35.00;44.90;;;;;;6213785;28;20049;-83
2022/06/28 05:44:16;;;;;;;2.63;1.15;;;32.20;50.00;;;;;;6217147;28;20140;-84
2022/06/28 05:47:17;;;;;;;1.98;0.95;;;30.00;54.40;;;;;;6229044;28;20132;-83
2022/06/28 05:50:20;;;;;;;2.80;1.75;;;28.20;59.90;;;;;;6229218;28;20070;-81
2022/06/28 05:53:21;;;;;;;2.50;1.10;;;27.00;62.50;;;;;;6205148;28;20046;-82
2022/06/28 05:56:24;;;;;;;3.75;1.73;;;25.80;67.40;;;;;;6227158;28;20139;-82
2022/06/28 05:59:27;;;;;;;4.03;1.42;;;25.10;72.00;;;;;;6226188;28;20069;-82
2022/06/28 06:02:29;;;;;;;2.63;1.15;;;24.80;74.80;;;;;;6226744;28;20046;-82
2022/06/28 06:05:31;;;;;;;2.00;1.05;;;24.40;77.50;;;;;;6227864;28;20140;-82
2022/06/28 06:08:33;;;;;;;2.88;1.20;;;24.30;79.40;;;;;;6226674;28;20176;-84
2022/06/28 06:11:35;;;;;;;6.95;1.85;;;24.30;81.30;;;;;;6216213;28;20043;-81
2022/06/28 06:14:38;;;;;;;2.97;1.00;;;24.30;81.90;;;;;;6205591;28;20046;-83
2022/06/28 06:17:40;;;;;;;2.85;1.25;;;24.30;82.70;;;;;;6227856;28;20518;-83
2022/06/28 06:20:42;;;;;;;2.72;0.77;;;24.30;83.30;;;;;;6229593;28;20052;-83
2022/06/28 06:23:44;;;;;;;2.65;1.42;;;24.40;83.10;;;;;;6229212;28;20034;-82
2022/06/28 06:26:46;;;;;;;2.78;0.82;;;24.50;81.50;;;;;;6226185;28;20079;-82
2022/06/28 06:29:49;;;;;;;3.00;0.88;;;24.30;82.90;;;;;;6227213;28;20089;-83
2022/06/28 06:32:51;;;;;;;5.30;1.17;;;24.20;82.80;;;;;;6227296;28;20046;-83
2022/06/28 06:35:53;;;;;;;2.25;0.93;;;23.90;83.00;;;;;;6226635;28;20081;-81
2022/06/28 06:38:54;;;;;;;5.13;0.68;;;23.60;83.60;;;;;;6226215;28;20045;-81
2022/06/28 06:41:56;;;;;;;1.48;0.60;;;23.40;85.00;;;;;;6211096;28;20127;-81
2022/06/28 06:45:00;;;;;;;1.60;1.10;;;23.20;83.20;;;;;;6204493;28;20132;-80
2022/06/28 06:48:02;;;;;;;4.50;1.00;;;23.00;83.50;;;;;;6201682;28;20050;-82
2022/06/28 06:51:04;;;;;;;2.63;0.43;;;22.90;84.60;;;;;;6201368;28;20459;-82
2022/06/28 06:54:07;;;;;;;1.20;0.68;;;22.70;85.50;;;;;;6205942;28;20193;-82
2022/06/28 06:57:08;;;;;;;1.42;0.70;;;22.70;86.30;;;;;;6227123;28;20089;-82
2022/06/28 07:00:13;;;;;;;2.03;0.60;;;22.80;87.10;;;;;;6226937;28;20049;-82
2022/06/28 07:03:14;;;;;;;0.95;0.68;;;22.90;85.20;;;;;;6226637;28;20077;-82
2022/06/28 07:06:16;;;;;;;3.25;0.70;;;22.80;85.80;;;;;;6226148;28;20522;-82
2022/06/28 07:09:18;;;;;;;1.50;0.68;;;22.80;86.20;;;;;;6226593;28;20089;-82
2022/06/28 07:12:20;;;;;;;2.85;0.50;;;22.70;86.90;;;;;;6216754;28;20038;-81
2022/06/28 07:15:23;;;;;;;1.02;0.40;;;22.70;86.40;;;;;;6201732;28;20108;-83
2022/06/28 07:18:25;;;;;;;3.67;0.90;;;23.00;87.20;;;;;;6200693;28;20050;-83
2022/06/28 07:21:27;;;;;;;1.63;0.70;;;23.30;85.10;;;;;;6202855;28;20078;-83
2022/06/28 07:24:30;;;;;;;0.80;0.50;;;23.40;84.60;;;;;;6201991;28;20042;-84
2022/06/28 07:27:32;;;;;;;7.07;0.68;;;23.40;83.60;;;;;;6201586;28;20057;-82
2022/06/28 07:30:35;;;;;;;5.20;0.80;;;23.40;81.50;;;;;;6203147;28;20098;-82
2022/06/28 07:33:37;;;;;;;1.42;0.50;;;23.40;80.70;;;;;;6202524;28;20161;-81
2022/06/28 07:36:40;;;;;;;0.75;0.38;;;23.50;80.70;;;;;;6202103;28;20121;-83
2022/06/28 07:39:43;;;;;;;2.67;0.55;;;23.60;77.50;;;;;;6201246;28;20046;-82
2022/06/28 07:42:44;;;;;;;1.08;0.45;;;23.60;76.30;;;;;;6214085;28;20046;-83
2022/06/28 07:45:48;;;;;;;1.83;0.50;;;23.70;78.00;;;;;;6226116;28;20127;-83
2022/06/28 07:48:50;;;;;;;2.65;0.45;;;23.90;76.20;;;;;;6225476;28;20598;-82
2022/06/28 07:55:10;;;;;;;1.85;0.40;;;24.30;72.60;;;;;;6200326;28;20591;-84
2022/06/28 07:58:12;;;;;;;2.00;0.30;;;24.50;70.80;;;;;;6225256;28;20050;-84
2022/06/28 08:01:16;;;;;;;1.05;0.30;;;24.50;69.20;;;;;;6226434;28;20046;-85
2022/06/28 08:04:18;;;;;;;2.67;0.25;;;24.40;67.50;;;;;;6225949;28;20057;-82
2022/06/28 08:07:20;;;;;;;1.48;0.40;;;24.30;67.30;;;;;;6225385;28;20125;-84
2022/06/28 08:10:22;;;;;;;2.03;0.40;;;24.30;67.10;;;;;;6224014;28;20127;-83
2022/06/28 08:13:24;;;;;;;0.73;0.45;;;24.50;68.40;;;;;;6226325;28;20150;-83
2022/06/28 08:16:27;;;;;;;3.72;0.45;;;24.90;68.30;;;;;;6225337;28;20109;-83
2022/06/28 08:19:29;;;;;;;3.35;0.20;;;25.10;65.70;;;;;;6225038;28;20089;-84
2022/06/28 08:22:31;;;;;;;0.20;0.10;;;25.10;65.60;;;;;;6225514;28;20073;-84
2022/06/28 08:25:33;;;;;;;1.33;0.35;;;25.10;63.00;;;;;;6226006;28;20505;-84
2022/06/28 08:28:35;;;;;;;1.80;0.45;;;25.10;63.80;;;;;;6225275;28;20119;-84
2022/06/28 08:31:38;;;;;;;1.55;0.20;;;25.20;63.70;;;;;;6225583;28;20176;-84
2022/06/28 08:34:40;;;;;;;0.40;0.30;;;25.30;63.30;;;;;;6226360;28;20069;-85
2022/06/28 08:37:42;;;;;;;2.15;0.43;;;25.20;62.10;;;;;;6225954;28;20188;-84
2022/06/28 08:40:45;;;;;;;2.72;0.28;;;25.10;62.10;;;;;;6226668;28;20129;-84
2022/06/28 08:43:47;;;;;;;1.80;0.40;;;25.10;62.70;;;;;;6226099;28;20060;-84
2022/06/28 08:46:52;;;;;;;0.85;0.20;;;25.50;59.90;;;;;;6219954;28;20128;-84
2022/06/28 08:49:56;;;;;;;1.40;0.32;;;25.60;58.40;;;;;;6201965;28;20092;-83
2022/06/28 08:53:00;;;;;;;0.90;0.20;;;25.60;59.10;;;;;;6202521;28;20110;-84
2022/06/28 08:56:05;;;;;;;0.75;0.43;;;25.70;57.70;;;;;;6201212;28;20415;-83
2022/06/28 08:59:08;;;;;;;2.03;0.30;;;25.80;57.20;;;;;;6201237;28;20085;-81
2022/06/28 09:02:14;;;;;;;0.85;0.50;;;25.80;58.50;;;;;;6210225;28;20428;-81
2022/06/28 09:05:16;;;;;;;1.75;0.32;;;26.10;55.80;;;;;;6200209;28;20129;-84
2022/06/28 09:08:18;;;;;;;0.55;0.20;;;26.20;53.70;;;;;;6199596;28;20050;-82
2022/06/28 09:11:20;;;;;;;2.83;0.43;;;26.30;54.50;;;;;;6198229;28;20124;-80
2022/06/28 09:14:24;;;;;;;1.40;0.60;;;26.40;53.00;;;;;;6196564;28;20065;-84
2022/06/28 09:17:29;;;;;;;2.42;0.20;;;26.50;52.80;;;;;;6199819;28;20098;-82
2022/06/28 09:20:37;;;;;;;3.15;0.30;;;26.60;52.20;;;;;;6198145;28;20090;-84
2022/06/28 09:23:40;;;;;;;0.45;0.10;;;26.70;51.70;;;;;;6199671;28;20053;-85
2022/06/28 09:26:42;;;;;;;0.22;0.20;;;26.60;52.10;;;;;;6198973;28;20129;-85
2022/06/28 09:29:48;;;;;;;3.05;0.45;;;26.70;51.90;;;;;;6199979;28;20053;-86
2022/06/28 09:32:51;;;;;;;1.17;0.30;;;26.90;53.40;;;;;;6201169;28;20073;-85
2022/06/28 09:35:53;;;;;;;2.90;0.52;;;27.20;50.00;;;;;;6197687;28;20046;-83
2022/06/28 09:38:56;;;;;;;0.73;0.50;;;26.90;50.00;;;;;;6197445;28;20050;-84
2022/06/28 09:41:59;;;;;;;2.63;0.30;;;26.70;51.10;;;;;;6197674;28;20421;-84
2022/06/28 09:45:02;;;;;;;1.02;0.20;;;26.80;50.20;;;;;;6198522;28;20058;-85
2022/06/28 09:48:06;;;;;;;0.93;0.30;;;26.80;50.40;;;;;;6196370;28;20054;-85
2022/06/28 09:51:08;;;;;;;3.38;0.30;;;26.90;50.50;;;;;;6196482;28;20536;-86
2022/06/28 09:54:11;;;;;;;1.20;0.30;;;27.10;50.60;;;;;;6197781;28;20124;-85
2022/06/28 09:57:13;;;;;;;0.38;0.17;;;26.90;49.80;;;;;;6196361;28;20129;-84
2022/06/28 10:00:20;;;;;;;1.33;0.43;;;27.00;51.00;;;;;;6198452;28;20132;-84
2022/06/28 10:03:23;;;;;;;0.32;0.30;;;27.20;50.60;;;;;;6198131;28;20097;-85
2022/06/28 10:06:26;;;;;;;1.10;0.30;;;27.40;51.50;;;;;;6198021;28;20453;-84
2022/06/28 10:09:28;;;;;;;0.38;0.20;;;27.60;50.50;;;;;;6199050;28;20082;-84
2022/06/28 10:15:58;;;;;;;1.30;0.30;;;29.00;48.40;;;;;;6197445;28;20125;-84
2022/06/28 10:19:04;;;;;;;0.65;0.28;;;30.30;46.00;;;;;;6195224;28;20090;-86
2022/06/28 10:22:10;;;;;;;4.32;0.40;;;31.10;45.10;;;;;;6197728;28;20042;-83
2022/06/28 10:25:17;;;;;;;0.47;0.20;;;31.10;43.80;;;;;;6197449;28;20054;-85
2022/06/28 10:28:27;;;;;;;0.90;0.30;;;31.00;44.80;;;;;;6197483;28;20097;-85
2022/06/28 10:31:35;;;;;;;0.90;0.30;;;30.70;44.30;;;;;;6187425;28;20054;-86
2022/06/28 10:34:52;;;;;;;0.98;0.30;;;30.10;43.20;;;;;;6201729;28;20132;-84
2022/06/28 10:38:18;;;;;;;2.45;0.35;;;29.50;44.20;;;;;;6202767;28;20050;-85
2022/06/28 10:41:19;;;;;;;0.35;0.20;;;29.30;44.00;;;;;;6204159;28;20061;-85
2022/06/28 10:44:23;;;;;;;2.10;0.38;;;29.20;45.30;;;;;;6201883;28;20078;-86
2022/06/28 10:47:25;;;;;;;2.83;0.32;;;29.00;44.00;;;;;;6206108;28;20100;-84
2022/06/28 10:50:28;;;;;;;5.13;0.52;;;28.60;45.00;;;;;;6209418;28;20101;-85
2022/06/28 10:53:51;;;;;;;3.35;0.30;;;28.30;45.40;;;;;;6208129;28;20112;-85
2022/06/28 10:56:54;;;;;;;1.42;0.20;;;28.20;45.50;;;;;;6207356;28;20109;-82
2022/06/28 10:59:58;;;;;;;4.95;0.52;;;28.30;47.50;;;;;;6206901;28;20050;-83
2022/06/28 11:03:03;;;;;;;2.03;0.28;;;28.80;46.00;;;;;;6205357;28;20516;-84
2022/06/28 11:06:08;;;;;;;1.17;0.30;;;29.00;44.50;;;;;;6201229;28;20046;-82
2022/06/28 11:09:18;;;;;;;0.63;0.43;;;29.00;44.70;;;;;;6202588;28;20065;-82
2022/06/28 11:12:21;;;;;;;0.93;0.38;;;28.90;44.30;;;;;;6203145;28;20053;-84
2022/06/28 11:15:35;;;;;;;0.65;0.28;;;29.10;45.60;;;;;;6203660;28;20050;-83
2022/06/28 11:18:37;;;;;;;1.35;0.10;;;29.80;44.70;;;;;;6201390;28;20132;-84
2022/06/28 11:21:40;;;;;;;1.95;0.20;;;29.90;43.80;;;;;;6201603;28;20077;-83
2022/06/28 11:24:44;;;;;;;1.60;0.30;;;29.70;43.70;;;;;;6202255;28;20652;-83
2022/06/28 11:27:48;;;;;;;1.05;0.50;;;29.60;43.70;;;;;;6202267;28;20126;-83
2022/06/28 11:30:50;;;;;;;0.50;0.20;;;29.80;44.70;;;;;;6204639;28;20050;-83
2022/06/28 11:33:52;;;;;;;3.20;0.30;;;30.10;43.20;;;;;;6202229;28;20136;-83
2022/06/28 11:36:56;;;;;;;0.65;0.20;;;30.00;43.40;;;;;;6202096;28;20050;-84
2022/06/28 11:40:01;;;;;;;2.10;0.25;;;29.90;42.90;;;;;;6202463;28;20133;-84
2022/06/28 11:43:04;;;;;;;2.22;0.20;;;29.90;42.30;;;;;;6205124;28;20050;-82
2022/06/28 11:46:06;;;;;;;1.65;0.30;;;30.00;41.90;;;;;;6205254;28;20046;-83
2022/06/28 11:49:08;;;;;;;5.72;0.20;;;30.00;42.60;;;;;;6203756;28;20053;-85
2022/06/28 11:52:16;;;;;;;5.78;0.50;;;30.10;43.00;;;;;;6205429;28;20527;-82
2022/06/28 11:55:20;;;;;;;0.35;0.13;;;30.30;42.40;;;;;;6208931;28;20081;-83
2022/06/28 11:58:26;;;;;;;3.20;0.30;;;30.50;41.80;;;;;;6208668;28;20056;-84
2022/06/28 12:01:37;;;;;;;0.63;0.20;;;30.20;41.40;;;;;;6207558;28;20074;-84
2022/06/28 12:04:41;;;;;;;0.20;0.10;;;29.80;42.20;;;;;;6209418;28;20092;-83
2022/06/28 12:07:45;;;;;;;2.65;0.20;;;30.00;43.00;;;;;;6206235;28;20054;-83
2022/06/28 12:10:47;;;;;;;1.27;0.43;;;30.00;41.90;;;;;;6206103;28;20046;-83
2022/06/28 12:13:49;;;;;;;0.93;0.30;;;30.00;42.40;;;;;;6208108;28;20124;-83
2022/06/28 12:16:58;;;;;;;1.42;0.30;;;30.40;42.20;;;;;;6205845;28;20096;-84
2022/06/28 12:20:07;;;;;;;1.15;0.35;;;30.50;40.80;;;;;;6213341;28;20047;-82
2022/06/28 12:23:11;;;;;;;3.03;0.32;;;30.40;42.40;;;;;;6214039;28;20070;-84
2022/06/28 12:26:13;;;;;;;1.13;0.30;;;30.70;41.60;;;;;;6214127;28;20050;-83
2022/06/28 12:29:14;;;;;;;0.60;0.25;;;31.20;42.00;;;;;;6214158;28;20123;-83
2022/06/28 12:32:17;;;;;;;4.75;0.40;;;31.60;40.90;;;;;;6216520;28;20115;-84
2022/06/28 12:35:19;;;;;;;0.75;0.38;;;31.70;39.90;;;;;;6218510;28;20050;-84
2022/06/28 12:38:22;;;;;;;2.75;0.35;;;31.50;40.00;;;;;;6216786;28;20050;-84
2022/06/28 12:41:24;;;;;;;0.82;0.20;;;31.80;41.30;;;;;;6217529;28;20073;-84
2022/06/28 12:44:26;;;;;;;1.05;0.10;;;32.20;40.30;;;;;;6217623;28;20093;-83
2022/06/28 12:47:28;;;;;;;3.92;0.15;;;32.00;40.30;;;;;;6217202;28;20054;-83
2022/06/28 12:50:30;;;;;;;3.03;0.28;;;31.90;39.20;;;;;;6217014;28;20073;-83
2022/06/28 12:53:33;;;;;;;2.70;0.40;;;31.80;40.30;;;;;;6214998;28;20054;-83
2022/06/28 12:56:35;;;;;;;0.95;0.43;;;31.80;39.60;;;;;;6214729;28;20062;-84
2022/06/28 12:59:37;;;;;;;0.85;0.30;;;31.70;39.20;;;;;;6212129;28;20061;-83
2022/06/28 13:02:39;;;;;;;0.40;0.20;;;31.40;40.10;;;;;;6214001;28;20046;-83
2022/06/28 13:05:41;;;;;;;0.82;0.40;;;31.30;39.80;;;;;;6215561;28;20069;-83
2022/06/28 13:08:44;;;;;;;2.40;0.50;;;31.30;40.60;;;;;;6216438;28;20109;-83
2022/06/28 13:11:46;;;;;;;0.70;0.20;;;31.50;40.70;;;;;;6218865;28;20560;-82
2022/06/28 13:14:48;;;;;;;2.83;0.20;;;31.40;39.60;;;;;;6220807;28;20054;-82
2022/06/28 13:17:50;;;;;;;1.15;0.20;;;31.30;40.60;;;;;;6212266;28;20464;-83
2022/06/28 13:20:52;;;;;;;0.70;0.17;;;31.50;39.50;;;;;;6213646;28;20058;-83
2022/06/28 13:23:55;;;;;;;1.92;0.20;;;31.60;39.90;;;;;;6216170;28;20046;-83
2022/06/28 13:26:57;;;;;;;0.90;0.20;;;31.20;40.10;;;;;;6215459;28;20069;-83
2022/06/28 13:29:59;;;;;;;1.33;0.25;;;30.90;40.50;;;;;;6210410;28;20117;-83
2022/06/28 13:33:00;;;;;;;1.35;0.20;;;30.60;40.40;;;;;;6208867;28;20501;-83
2022/06/28 13:36:03;;;;;;;1.50;0.47;;;30.40;40.30;;;;;;6207654;28;20061;-83
2022/06/28 13:39:06;;;;;;;5.68;0.30;;;30.40;41.20;;;;;;6208279;28;20096;-83
2022/06/28 13:42:08;;;;;;;1.77;0.40;;;30.60;41.20;;;;;;6209553;28;20420;-83
2022/06/28 13:45:12;;;;;;;1.50;0.20;;;30.70;40.90;;;;;;6207455;28;20053;-84
2022/06/28 13:48:14;;;;;;;1.33;0.20;;;30.50;41.70;;;;;;6204290;28;20045;-84
2022/06/28 13:51:15;;;;;;;3.92;0.28;;;30.40;41.50;;;;;;6204183;28;20054;-84
2022/06/28 13:54:19;;;;;;;2.00;0.30;;;30.60;40.60;;;;;;6203674;28;20129;-85
2022/06/28 13:57:20;;;;;;;0.40;0.20;;;30.60;41.10;;;;;;6201831;28;20144;-85
2022/06/28 14:00:22;;;;;;;1.75;0.25;;;30.40;42.30;;;;;;6200321;28;20128;-82
2022/06/28 14:03:24;;;;;;;1.50;0.43;;;30.50;43.50;;;;;;6203526;28;20106;-83
2022/06/28 14:06:26;;;;;;;0.93;0.40;;;30.60;42.10;;;;;;6209219;28;20066;-83
2022/06/28 14:09:29;;;;;;;1.38;0.15;;;30.40;42.50;;;;;;6209348;28;20089;-82
2022/06/28 14:12:31;;;;;;;1.23;0.20;;;30.30;42.80;;;;;;6210897;28;20511;-83
2022/06/28 14:15:33;;;;;;;0.77;0.35;;;30.00;42.30;;;;;;6211403;28;20547;-83
2022/06/28 14:18:35;;;;;;;1.58;0.28;;;30.00;43.30;;;;;;6211605;28;20698;-82
2022/06/28 14:21:37;;;;;;;4.43;0.47;;;30.00;42.50;;;;;;6211523;28;20065;-82
2022/06/28 14:24:40;;;;;;;2.47;0.20;;;29.90;42.90;;;;;;6211793;28;20077;-83
2022/06/28 14:27:42;;;;;;;3.03;0.38;;;30.00;43.50;;;;;;6212148;28;20130;-82
2022/06/28 14:30:46;;;;;;;1.40;0.40;;;30.30;43.00;;;;;;6213043;28;20053;-83
2022/06/28 14:33:47;;;;;;;0.95;0.20;;;30.30;43.10;;;;;;6214566;28;20117;-83
2022/06/28 14:36:49;;;;;;;1.02;0.20;;;30.30;43.60;;;;;;6219127;28;20057;-83
2022/06/28 14:39:52;;;;;;;2.50;0.40;;;29.90;42.60;;;;;;6218646;28;20467;-83
2022/06/28 14:42:54;;;;;;;0.20;0.10;;;29.70;43.00;;;;;;6218470;28;20050;-83
2022/06/28 14:45:56;;;;;;;0.43;0.10;;;29.60;44.30;;;;;;6216508;28;20054;-83
2022/06/28 14:48:58;;;;;;;0.57;0.13;;;29.60;44.60;;;;;;6220674;28;20045;-83
2022/06/28 14:52:01;;;;;;;0.65;0.28;;;29.90;44.20;;;;;;6211953;28;20054;-86
2022/06/28 14:55:05;;;;;;;3.50;0.82;;;30.20;45.00;;;;;;6214480;28;20046;-84
2022/06/28 14:58:08;;;;;;;0.77;0.30;;;30.40;44.40;;;;;;6216293;28;20098;-84
2022/06/28 15:01:10;;;;;;;0.30;0.10;;;30.30;43.80;;;;;;6218106;28;20042;-83
2022/06/28 15:04:12;;;;;;;2.70;0.20;;;30.00;44.00;;;;;;6220675;28;20042;-83
2022/06/28 15:07:14;;;;;;;0.50;0.10;;;29.70;44.80;;;;;;6216947;28;20046;-84
2022/06/28 15:10:17;;;;;;;5.57;0.38;;;29.60;44.60;;;;;;6216019;28;20102;-83
2022/06/28 15:13:22;;;;;;;1.08;0.30;;;29.30;44.50;;;;;;6238055;28;20037;-84
2022/06/28 15:16:24;;;;;;;2.30;0.22;;;28.90;44.90;;;;;;6237973;28;20128;-83
2022/06/28 15:19:26;;;;;;;1.33;0.43;;;28.90;45.90;;;;;;6227614;28;20045;-85
2022/06/28 15:32:42;;;;;;;0.80;0.20;;;28.40;47.30;;;;;;6241144;28;20050;-84
2022/06/28 15:35:43;;;;;;;1.20;0.20;;;28.40;47.60;;;;;;6243272;28;20096;-82
2022/06/28 15:38:45;;;;;;;0.50;0.20;;;28.30;47.40;;;;;;6239136;28;20050;-85
2022/06/28 15:41:48;;;;;;;2.08;0.32;;;28.40;48.00;;;;;;6238635;28;20064;-82
2022/06/28 15:44:50;;;;;;;0.95;0.45;;;28.30;48.00;;;;;;6240442;28;20116;-84
2022/06/28 15:47:52;;;;;;;2.17;0.50;;;28.30;48.30;;;;;;6230148;28;20503;-83
2022/06/28 15:51:05;;;;;;;0.20;0.10;;;28.50;48.90;;;;;;6225734;28;20423;-85
2022/06/28 15:55:14;;;;;;;1.02;0.40;;;28.60;47.90;;;;;;6235063;28;20057;-85
2022/06/28 15:58:29;;;;;;;0.70;0.38;;;28.60;48.20;;;;;;6215068;28;20065;-82
2022/06/28 16:01:30;;;;;;;0.52;0.25;;;28.80;48.40;;;;;;6239575;28;20078;-85
2022/06/28 16:04:34;;;;;;;0.82;0.43;;;28.90;48.40;;;;;;6221927;28;20064;-86
2022/06/28 16:07:35;;;;;;;0.80;0.40;;;29.00;48.00;;;;;;6209316;28;20089;-85
2022/06/28 16:10:37;;;;;;;1.25;0.20;;;29.10;48.80;;;;;;6213290;28;20050;-83
2022/06/28 16:13:40;;;;;;;2.70;0.70;;;29.10;47.60;;;;;;6216471;28;20129;-83
2022/06/28 16:16:42;;;;;;;2.53;0.30;;;28.90;48.10;;;;;;6214447;28;20141;-83